createdAt,value
2018-10-19T00:00:58.214Z,85.59
2018-10-19T00:03:33.961Z,86.98
2018-10-19T00:06:09.868Z,87.47
2018-10-19T00:08:45.729Z,87.21
2018-10-19T00:11:21.749Z,84.74
2018-10-19T00:13:57.710Z,84.71
2018-10-19T00:16:33.523Z,85.22
2018-10-19T00:19:09.357Z,85.62
2018-10-19T00:21:45.342Z,86.07
2018-10-19T00:24:21.253Z,85.58
2018-10-19T00:26:57.280Z,85.70
2018-10-19T00:29:33.076Z,83.76
2018-10-19T00:32:09.036Z,82.51
2018-10-19T00:34:44.792Z,83.18
2018-10-19T00:37:20.559Z,82.35
2018-10-19T00:39:56.526Z,80.94
2018-10-19T00:42:32.442Z,82.27
2018-10-19T00:45:08.772Z,84.24
2018-10-19T00:47:44.919Z,84.94
2018-10-19T00:50:20.725Z,84.84
2018-10-19T00:52:56.561Z,84.44
2018-10-19T00:55:32.581Z,85.56
2018-10-19T00:58:08.528Z,85.33
2018-10-19T01:00:44.474Z,87.78
2018-10-19T01:03:20.404Z,88.25
2018-10-19T01:05:56.284Z,91.31
2018-10-19T01:08:32.236Z,91.83
2018-10-19T01:11:08.183Z,92.11
2018-10-19T01:13:44.109Z,92.82
2018-10-19T01:16:19.981Z,89.38
2018-10-19T01:18:55.988Z,86.90
2018-10-19T01:21:31.766Z,86.61
2018-10-19T01:24:07.615Z,86.36
2018-10-19T01:26:43.599Z,86.60
2018-10-19T01:29:19.541Z,87.35
2018-10-19T01:31:55.391Z,85.81
2018-10-19T01:34:31.205Z,87.25
2018-10-19T01:37:07.062Z,87.29
2018-10-19T01:39:42.947Z,87.01
2018-10-19T01:42:17.861Z,86.72
2018-10-19T01:44:52.708Z,86.14
2018-10-19T01:47:27.632Z,84.70
2018-10-19T01:50:02.521Z,84.68
2018-10-19T01:52:37.375Z,87.25
2018-10-19T01:55:12.275Z,88.16
2018-10-19T01:57:47.097Z,87.14
2018-10-19T02:00:22.052Z,87.07
2018-10-19T02:02:59.736Z,87.27
2018-10-19T02:05:34.577Z,87.82
2018-10-19T02:08:11.379Z,87.56
2018-10-19T02:10:46.287Z,88.38
2018-10-19T02:13:21.173Z,87.89
2018-10-19T02:15:56.100Z,86.28
2018-10-19T02:18:30.985Z,87.73
2018-10-19T02:21:06.267Z,88.46
2018-10-19T02:23:41.325Z,89.25
2018-10-19T02:26:16.324Z,89.21
2018-10-19T02:28:51.130Z,88.03
2018-10-19T02:31:26.265Z,87.45
2018-10-19T02:34:01.096Z,87.25
2018-10-19T02:36:36.067Z,89.75
2018-10-19T02:39:11.091Z,91.18
2018-10-19T02:41:46.027Z,89.70
2018-10-19T02:44:21.108Z,88.96
2018-10-19T02:46:55.923Z,88.57
2018-10-19T02:49:30.828Z,88.16
2018-10-19T02:52:06.104Z,88.39
2018-10-19T02:54:40.990Z,90.00
2018-10-19T02:57:15.802Z,89.27
2018-10-19T02:59:50.830Z,88.12
2018-10-19T03:02:25.700Z,87.89
2018-10-19T03:05:00.569Z,84.55
2018-10-19T03:07:35.765Z,83.28
2018-10-19T03:10:10.668Z,83.89
2018-10-19T03:12:45.446Z,84.54
2018-10-19T03:15:20.310Z,87.58
2018-10-19T03:17:55.181Z,89.08
2018-10-19T03:20:30.054Z,91.53
2018-10-19T03:23:05.179Z,92.74
2018-10-19T03:25:40.163Z,91.90
2018-10-19T03:28:14.941Z,90.93
2018-10-19T03:30:49.617Z,91.33
2018-10-19T03:33:24.986Z,93.81
2018-10-19T03:35:59.925Z,93.58
2018-10-19T03:38:34.728Z,92.92
2018-10-19T03:41:09.646Z,90.55
2018-10-19T03:43:44.779Z,92.55
2018-10-19T03:46:19.504Z,94.23
2018-10-19T03:48:54.547Z,94.92
2018-10-19T03:51:29.471Z,95.25
2018-10-19T03:54:04.381Z,93.24
2018-10-19T03:56:39.142Z,93.31
2018-10-19T03:59:14.013Z,92.41
2018-10-19T04:01:48.904Z,90.94
2018-10-19T04:04:23.668Z,89.39
2018-10-19T04:06:58.537Z,85.42
2018-10-19T04:09:33.414Z,84.41
2018-10-19T04:12:08.307Z,82.97
2018-10-19T04:14:43.052Z,84.69
2018-10-19T04:17:17.984Z,88.57
2018-10-19T04:19:53.115Z,90.14
2018-10-19T04:22:27.980Z,88.12
2018-10-19T04:25:02.721Z,87.73
2018-10-19T04:27:37.430Z,87.92
2018-10-19T04:30:12.462Z,87.40
2018-10-19T04:32:47.490Z,89.51
2018-10-19T04:35:22.474Z,91.63
2018-10-19T04:37:57.274Z,94.00
2018-10-19T04:40:31.992Z,95.41
2018-10-19T04:43:06.763Z,92.39
2018-10-19T04:45:42.128Z,90.93
2018-10-19T04:48:17.235Z,91.15
2018-10-19T04:50:52.120Z,92.26
2018-10-19T04:53:26.991Z,90.95
2018-10-19T04:56:01.956Z,89.78
2018-10-19T04:58:37.762Z,89.06
2018-10-19T05:01:12.583Z,90.19
2018-10-19T05:03:47.476Z,90.52
2018-10-19T05:06:22.380Z,90.19
2018-10-19T05:08:57.314Z,90.65
2018-10-19T05:11:32.156Z,89.05
2018-10-19T05:14:07.272Z,85.85
2018-10-19T05:16:42.524Z,85.61
2018-10-19T05:19:20.928Z,82.83
2018-10-19T05:21:55.744Z,80.80
2018-10-19T05:24:30.630Z,80.04
2018-10-19T05:27:05.537Z,79.73
2018-10-19T05:29:40.412Z,81.71
2018-10-19T05:32:15.292Z,84.01
2018-10-19T05:34:50.203Z,83.65
2018-10-19T05:37:25.172Z,84.68
2018-10-19T05:40:00.841Z,86.55
2018-10-19T05:42:35.659Z,85.52
2018-10-19T05:45:11.563Z,85.57
2018-10-19T05:47:46.524Z,85.64
2018-10-19T05:50:21.443Z,85.01
2018-10-19T05:52:56.430Z,83.61
2018-10-19T05:55:31.265Z,82.64
2018-10-19T05:58:06.055Z,83.79
2018-10-19T06:00:41.048Z,83.59
2018-10-19T06:03:15.876Z,84.86
2018-10-19T06:05:50.915Z,81.10
2018-10-19T06:08:25.942Z,80.64
2018-10-19T06:11:00.760Z,80.30
2018-10-19T06:13:35.718Z,82.65
2018-10-19T06:16:10.772Z,82.39
2018-10-19T06:18:45.554Z,82.46
2018-10-19T06:21:20.217Z,81.42
2018-10-19T06:23:55.185Z,82.19
2018-10-19T06:26:30.202Z,81.40
2018-10-19T06:29:05.763Z,82.10
2018-10-19T06:31:40.857Z,81.49
2018-10-19T06:34:16.175Z,80.54
2018-10-19T06:36:51.063Z,79.21
2018-10-19T06:39:26.173Z,76.95
2018-10-19T06:42:00.959Z,76.51
2018-10-19T06:44:35.797Z,75.19
2018-10-19T06:47:10.844Z,74.05
2018-10-19T06:49:45.805Z,73.81
2018-10-19T06:52:20.696Z,73.90
2018-10-19T06:54:50.608Z,72.46
2018-10-19T06:57:25.354Z,72.21
2018-10-19T06:59:55.058Z,72.15
2018-10-19T07:02:24.771Z,73.02
2018-10-19T07:04:54.494Z,72.94
2018-10-19T07:07:24.255Z,72.43
2018-10-19T07:09:54.025Z,70.96
2018-10-19T07:12:23.743Z,69.87
2018-10-19T07:14:53.705Z,68.05
2018-10-19T07:17:23.407Z,67.99
2018-10-19T07:19:55.576Z,67.34
2018-10-19T07:22:25.244Z,67.57
2018-10-19T07:24:54.924Z,68.71
2018-10-19T07:27:24.677Z,68.82
2018-10-19T07:29:54.430Z,67.19
2018-10-19T07:32:24.105Z,66.49
2018-10-19T07:34:53.901Z,66.53
2018-10-19T07:37:23.630Z,65.95
2018-10-19T07:39:53.379Z,65.09
2018-10-19T07:42:23.510Z,65.75
2018-10-19T07:44:56.271Z,64.28
2018-10-19T07:47:26.169Z,63.42
2018-10-19T07:49:56.400Z,63.49
2018-10-19T07:52:26.325Z,62.60
2018-10-19T07:54:56.428Z,62.05
2018-10-19T07:57:26.123Z,61.83
2018-10-19T07:59:55.916Z,61.57
2018-10-19T08:02:25.652Z,61.08
2018-10-19T08:04:55.338Z,60.14
2018-10-19T08:07:25.001Z,58.79
2018-10-19T08:09:54.732Z,57.95
2018-10-19T08:12:24.403Z,59.12
2018-10-19T08:14:54.158Z,59.01
2018-10-19T08:17:23.982Z,58.61
2018-10-19T08:19:53.694Z,59.43
2018-10-19T08:22:23.411Z,59.82
2018-10-19T08:24:53.948Z,59.65
2018-10-19T08:27:23.779Z,58.48
2018-10-19T08:29:53.639Z,58.44
2018-10-19T08:32:23.364Z,58.49
2018-10-19T08:34:53.057Z,58.55
2018-10-19T08:37:22.793Z,57.63
2018-10-19T08:39:52.948Z,57.61
2018-10-19T08:42:22.689Z,57.46
2018-10-19T08:44:52.401Z,57.32
2018-10-19T08:47:22.140Z,57.33
2018-10-19T08:49:56.872Z,56.76
2018-10-19T08:52:29.271Z,56.18
2018-10-19T08:54:59.319Z,55.23
2018-10-19T08:57:29.123Z,55.63
2018-10-19T08:59:59.061Z,54.89
2018-10-19T09:02:28.979Z,54.49
2018-10-19T09:04:58.688Z,54.57
2018-10-19T09:07:29.788Z,53.35
2018-10-19T09:09:59.547Z,52.36
2018-10-19T09:12:29.263Z,52.45
2018-10-19T09:15:00.385Z,51.59
2018-10-19T09:17:30.122Z,51.39
2018-10-19T09:20:00.382Z,51.06
2018-10-19T09:22:30.496Z,50.80
2018-10-19T09:25:00.535Z,50.16
2018-10-19T09:27:31.358Z,50.46
2018-10-19T09:30:01.389Z,49.61
2018-10-19T09:32:32.410Z,49.41
2018-10-19T09:35:02.508Z,49.78
2018-10-19T09:37:32.601Z,49.27
2018-10-19T09:40:02.290Z,48.52
2018-10-19T09:42:32.204Z,47.67
2018-10-19T09:45:01.984Z,46.72
2018-10-19T09:47:31.993Z,46.59
2018-10-19T09:50:01.927Z,46.54
2018-10-19T09:52:31.897Z,45.28
2018-10-19T09:55:01.828Z,44.83
2018-10-19T09:57:31.824Z,43.70
2018-10-19T10:00:01.563Z,43.74
2018-10-19T10:02:31.464Z,44.45
2018-10-19T10:05:01.286Z,43.30
2018-10-19T10:07:31.198Z,43.20
2018-10-19T10:10:00.892Z,43.35
2018-10-19T10:12:30.690Z,43.32
2018-10-19T10:15:00.443Z,42.12
2018-10-19T10:17:30.478Z,42.51
2018-10-19T10:20:00.297Z,41.86
2018-10-19T10:22:30.132Z,41.26
2018-10-19T10:25:00.008Z,40.67
2018-10-19T10:27:30.198Z,41.69
2018-10-19T10:29:59.877Z,40.12
2018-10-19T10:32:29.642Z,40.82
2018-10-19T10:34:59.552Z,41.18
2018-10-19T10:37:29.232Z,40.40
2018-10-19T10:39:58.916Z,39.65
2018-10-19T10:42:29.280Z,40.01
2018-10-19T10:44:59.045Z,39.98
2018-10-19T10:47:28.711Z,39.61
2018-10-19T10:49:58.433Z,39.57
2018-10-19T10:52:28.120Z,39.05
2018-10-19T10:54:57.847Z,39.22
2018-10-19T10:57:33.213Z,39.07
2018-10-19T11:00:02.960Z,38.56
2018-10-19T11:02:34.239Z,38.43
2018-10-19T11:05:04.142Z,38.49
2018-10-19T11:07:34.108Z,37.89
2018-10-19T11:10:03.834Z,38.20
2018-10-19T11:12:33.740Z,37.38
2018-10-19T11:15:04.092Z,36.92
2018-10-19T11:17:33.923Z,37.49
2018-10-19T11:20:03.965Z,37.07
2018-10-19T11:22:33.653Z,36.32
2018-10-19T11:25:03.441Z,36.65
2018-10-19T11:27:36.735Z,36.25
2018-10-19T11:30:10.003Z,36.84
2018-10-19T11:32:39.764Z,36.13
2018-10-19T11:35:09.721Z,35.78
2018-10-19T11:37:39.545Z,34.96
2018-10-19T11:40:31.473Z,35.60
2018-10-19T11:44:25.574Z,35.61
2018-10-19T11:54:02.113Z,35.97
2018-10-19T11:56:31.784Z,35.58
2018-10-19T11:59:01.575Z,35.75
2018-10-19T12:01:31.413Z,35.25
2018-10-19T12:04:06.400Z,35.50
2018-10-19T12:06:36.316Z,35.57
2018-10-19T12:09:07.511Z,35.71
2018-10-19T12:11:37.232Z,34.78
2018-10-19T12:14:06.917Z,34.97
2018-10-19T12:16:36.702Z,35.98
2018-10-19T12:19:06.788Z,35.78
2018-10-19T12:21:36.845Z,35.53
2018-10-19T12:24:06.498Z,35.90
2018-10-19T12:26:36.229Z,35.24
2018-10-19T12:29:05.918Z,35.36
2018-10-19T12:31:35.576Z,34.88
2018-10-19T12:34:05.484Z,34.73
2018-10-19T12:36:38.852Z,34.74
2018-10-19T12:39:09.575Z,34.19
2018-10-19T12:41:39.462Z,34.73
2018-10-19T12:44:11.772Z,34.52
2018-10-19T12:46:50.275Z,35.02
2018-10-19T12:49:21.375Z,34.64
2018-10-19T12:51:51.087Z,35.90
2018-10-19T12:54:20.786Z,36.16
2018-10-19T12:56:51.054Z,35.67
2018-10-19T12:59:21.066Z,35.84
2018-10-19T13:01:50.779Z,36.20
2018-10-19T13:04:20.547Z,37.00
2018-10-19T13:06:50.520Z,36.52
2018-10-19T13:09:20.311Z,36.81
2018-10-19T13:11:50.361Z,36.69
2018-10-19T13:14:20.089Z,36.83
2018-10-19T13:16:49.791Z,36.48
2018-10-19T13:19:19.592Z,37.16
2018-10-19T13:21:49.287Z,36.55
2018-10-19T13:24:19.026Z,35.49
2018-10-19T13:26:48.815Z,34.14
2018-10-19T13:29:19.838Z,32.68
2018-10-19T13:31:50.770Z,31.15
2018-10-19T13:34:21.734Z,30.31
2018-10-19T13:36:53.577Z,31.18
2018-10-19T13:39:24.431Z,32.93
2018-10-19T13:41:55.382Z,31.42
2018-10-19T13:44:26.980Z,31.23
2018-10-19T13:46:57.914Z,32.00
2018-10-19T13:49:29.007Z,32.61
2018-10-19T13:52:00.078Z,33.00
2018-10-19T13:54:30.961Z,32.74
2018-10-19T13:57:01.847Z,33.85
2018-10-19T13:59:33.033Z,34.38
2018-10-19T14:02:03.976Z,34.58
2018-10-19T14:04:34.848Z,34.21
2018-10-19T14:07:06.224Z,34.32
2018-10-19T14:09:37.024Z,35.29
2018-10-19T14:12:07.964Z,35.11
2018-10-19T14:14:38.799Z,35.60
2018-10-19T14:17:13.134Z,36.34
2018-10-19T14:19:44.229Z,36.72
2018-10-19T14:22:15.164Z,37.74
2018-10-19T14:24:46.112Z,37.78
2018-10-19T14:27:17.092Z,38.22
2018-10-19T14:29:48.071Z,38.61
2018-10-19T14:32:18.974Z,38.56
2018-10-19T14:34:49.811Z,38.83
2018-10-19T14:37:20.778Z,39.19
2018-10-19T14:39:51.612Z,38.82
2018-10-19T14:42:22.501Z,39.07
2018-10-19T14:44:53.339Z,39.84
2018-10-19T14:47:24.233Z,39.87
2018-10-19T14:49:55.122Z,40.87
2018-10-19T14:52:26.771Z,40.38
2018-10-19T14:54:57.671Z,40.76
2018-10-19T14:57:28.565Z,41.07
2018-10-19T14:59:59.548Z,40.50
2018-10-19T15:02:30.453Z,40.62
2018-10-19T15:05:01.345Z,41.25
2018-10-19T15:07:32.590Z,41.21
2018-10-19T15:10:03.540Z,41.73
2018-10-19T15:12:34.817Z,42.16
2018-10-19T15:15:05.847Z,42.53
2018-10-19T15:17:36.781Z,42.60
2018-10-19T15:20:07.707Z,42.52
2018-10-19T15:22:38.687Z,43.15
2018-10-19T15:25:10.371Z,44.90
2018-10-19T15:27:43.295Z,45.18
2018-10-19T15:30:15.849Z,45.55
2018-10-19T15:32:47.477Z,47.20
2018-10-19T15:35:18.342Z,48.27
2018-10-19T15:37:49.238Z,49.39
2018-10-19T15:40:20.193Z,49.78
2018-10-19T15:42:54.066Z,50.69
2018-10-19T15:45:24.930Z,51.75
2018-10-19T15:47:55.869Z,54.23
2018-10-19T15:50:32.748Z,55.31
2018-10-19T15:53:04.257Z,55.71
2018-10-19T15:55:35.147Z,57.06
2018-10-19T15:58:06.298Z,57.04
2018-10-19T16:00:37.252Z,58.03
2018-10-19T16:03:08.395Z,59.31
2018-10-19T16:05:39.528Z,57.87
2018-10-19T16:08:10.908Z,58.25
2018-10-19T16:10:41.792Z,57.64
2018-10-19T16:13:12.794Z,57.34
2018-10-19T16:15:43.654Z,57.63
2018-10-19T16:18:15.034Z,58.34
2018-10-19T16:20:46.109Z,57.89
2018-10-19T16:23:17.066Z,57.95
2018-10-19T16:25:49.050Z,56.82
2018-10-19T16:28:19.992Z,56.02
2018-10-19T16:30:51.057Z,53.91
2018-10-19T16:33:21.981Z,54.77
2018-10-19T16:35:52.953Z,54.74
2018-10-19T16:38:24.792Z,55.31
2018-10-19T16:40:55.754Z,57.17
2018-10-19T16:43:26.667Z,56.29
2018-10-19T16:45:57.542Z,58.35
2018-10-19T16:48:28.497Z,57.86
2018-10-19T16:50:59.389Z,58.39
2018-10-19T16:53:30.582Z,58.78
2018-10-19T16:56:01.445Z,59.67
2018-10-19T16:58:32.379Z,60.39
2018-10-19T17:01:03.341Z,60.36
2018-10-19T17:03:34.268Z,61.31
2018-10-19T17:06:05.765Z,60.62
2018-10-19T17:08:36.948Z,59.28
2018-10-19T17:11:07.814Z,59.38
2018-10-19T17:13:38.829Z,60.49
2018-10-19T17:16:09.853Z,61.79
2018-10-19T17:18:41.466Z,62.25
2018-10-19T17:21:12.403Z,61.45
2018-10-19T17:23:43.634Z,62.76
2018-10-19T17:26:14.716Z,61.06
2018-10-19T17:28:45.652Z,61.63
2018-10-19T17:31:16.636Z,61.57
2018-10-19T17:33:49.932Z,63.28
2018-10-19T17:36:20.872Z,62.99
2018-10-19T17:38:51.820Z,63.06
2018-10-19T17:41:22.692Z,62.82
2018-10-19T17:43:53.608Z,63.19
2018-10-19T17:46:27.579Z,62.26
2018-10-19T17:48:58.496Z,61.42
2018-10-19T17:51:29.568Z,61.39
2018-10-19T17:54:00.617Z,61.94
2018-10-19T17:56:31.821Z,62.86
2018-10-19T17:59:02.782Z,63.31
2018-10-19T18:01:36.608Z,64.00
2018-10-19T18:04:07.579Z,63.32
2018-10-19T18:06:38.809Z,63.31
2018-10-19T18:09:11.593Z,64.61
2018-10-19T18:11:43.725Z,64.16
2018-10-19T18:14:15.001Z,64.04
2018-10-19T18:16:45.915Z,65.59
2018-10-19T18:19:16.912Z,65.72
2018-10-19T18:21:47.901Z,66.32
2018-10-19T18:24:19.044Z,66.94
2018-10-19T18:26:50.659Z,65.55
2018-10-19T18:29:21.928Z,65.71
2018-10-19T18:31:53.313Z,64.85
2018-10-19T18:34:24.466Z,64.31
2018-10-19T18:36:55.452Z,65.71
2018-10-19T18:39:26.530Z,64.23
2018-10-19T18:41:57.525Z,64.28
2018-10-19T18:44:28.636Z,65.73
2018-10-19T18:46:59.608Z,65.28
2018-10-19T18:49:30.976Z,66.84
2018-10-19T18:52:01.859Z,66.88
2018-10-19T18:54:32.803Z,67.42
2018-10-19T18:57:03.667Z,67.63
2018-10-19T18:59:34.864Z,67.30
2018-10-19T19:02:06.651Z,66.62
2018-10-19T19:04:38.256Z,67.26
2018-10-19T19:07:10.070Z,68.33
2018-10-19T19:09:41.224Z,68.51
2018-10-19T19:12:12.283Z,68.42
2018-10-19T19:14:43.369Z,68.72
2018-10-19T19:17:14.777Z,67.93
2018-10-19T19:19:49.907Z,69.30
2018-10-19T19:22:20.781Z,68.97
2018-10-19T19:24:57.394Z,70.10
2018-10-19T19:27:28.236Z,68.98
2018-10-19T19:30:00.474Z,70.44
2018-10-19T19:32:31.353Z,70.25
2018-10-19T19:35:02.497Z,70.60
2018-10-19T19:37:34.257Z,72.31
2018-10-19T19:40:05.458Z,72.15
2018-10-19T19:42:42.662Z,70.26
2018-10-19T19:45:14.106Z,69.40
2018-10-19T19:47:50.519Z,69.61
2018-10-19T19:50:22.843Z,70.21
2018-10-19T19:52:54.267Z,71.25
2018-10-19T19:55:25.666Z,72.86
2018-10-19T19:57:56.857Z,72.53
2018-10-19T20:00:33.318Z,74.19
2018-10-19T20:03:09.511Z,74.40
2018-10-19T20:05:45.977Z,76.44
2018-10-19T20:08:22.129Z,76.75
2018-10-19T20:10:58.650Z,77.93
2018-10-19T20:13:34.673Z,78.28
2018-10-19T20:16:11.401Z,78.80
2018-10-19T20:18:48.199Z,79.22
2018-10-19T20:21:24.196Z,78.55
2018-10-19T20:24:00.144Z,77.57
2018-10-19T20:26:37.872Z,77.51
2018-10-19T20:29:16.037Z,79.06
2018-10-19T20:31:52.609Z,79.84
2018-10-19T20:34:29.787Z,79.68
2018-10-19T20:44:08.156Z,79.93
2018-10-19T20:46:44.140Z,78.93
2018-10-19T20:49:21.998Z,77.70
2018-10-19T20:51:57.888Z,77.46
2018-10-19T20:54:33.727Z,77.78
2018-10-19T20:57:10.006Z,77.32
2018-10-19T20:59:46.122Z,77.70
2018-10-19T21:02:22.219Z,78.09
2018-10-19T21:04:58.575Z,78.77
2018-10-19T21:07:35.371Z,78.83
2018-10-19T21:10:12.929Z,79.86
2018-10-19T21:12:49.301Z,79.99
2018-10-19T21:15:25.308Z,81.15
2018-10-19T21:18:01.267Z,80.91
2018-10-19T21:20:37.133Z,81.25
2018-10-19T21:23:13.168Z,80.50
2018-10-19T21:25:49.489Z,80.86
2018-10-19T21:28:26.137Z,79.50
2018-10-19T21:31:02.213Z,79.47
2018-10-19T21:33:38.147Z,78.96
2018-10-19T21:36:17.796Z,79.22
2018-10-19T21:38:54.328Z,78.95
2018-10-19T21:41:30.422Z,78.24
2018-10-19T21:44:06.508Z,77.79
2018-10-19T21:46:45.099Z,77.51
2018-10-19T21:49:21.857Z,78.45
2018-10-19T21:51:57.972Z,78.02
2018-10-19T21:54:34.095Z,78.64
2018-10-19T21:57:10.188Z,77.58
2018-10-19T21:59:46.300Z,78.60
2018-10-19T22:02:22.344Z,81.41
2018-10-19T22:04:58.431Z,81.13
2018-10-19T22:07:34.808Z,81.14
2018-10-19T22:10:14.234Z,84.71
2018-10-19T22:12:50.253Z,86.00
2018-10-19T22:15:26.238Z,85.02
2018-10-19T22:18:02.501Z,84.10
2018-10-19T22:20:38.443Z,83.58
2018-10-19T22:23:14.606Z,83.16
2018-10-19T22:25:50.792Z,83.11
2018-10-19T22:28:25.758Z,82.62
2018-10-19T22:31:01.863Z,81.43
2018-10-19T22:33:38.008Z,81.85
2018-10-19T22:36:13.938Z,81.55
2018-10-19T22:38:49.863Z,81.17
2018-10-19T22:41:25.794Z,81.65
2018-10-19T22:44:01.805Z,80.29
2018-10-19T22:46:37.836Z,81.61
2018-10-19T22:49:13.919Z,83.70
2018-10-19T22:51:50.108Z,84.70
2018-10-19T22:54:26.196Z,84.01
2018-10-19T22:57:02.231Z,85.59
2018-10-19T22:59:38.289Z,87.53
2018-10-19T23:02:14.366Z,88.55
2018-10-19T23:04:50.425Z,86.85
2018-10-19T23:07:26.582Z,85.27
2018-10-19T23:10:02.615Z,82.74
2018-10-19T23:12:38.516Z,81.73
2018-10-19T23:15:14.523Z,83.03
2018-10-19T23:17:50.474Z,82.06
2018-10-19T23:20:26.829Z,83.31
2018-10-19T23:23:02.753Z,84.78
2018-10-19T23:25:38.936Z,84.66
2018-10-19T23:28:14.865Z,83.59
2018-10-19T23:30:50.823Z,84.49
2018-10-19T23:33:26.721Z,83.58
2018-10-19T23:36:02.721Z,83.54
2018-10-19T23:38:38.753Z,81.24
2018-10-19T23:41:14.820Z,80.86
2018-10-19T23:43:51.091Z,80.26
2018-10-19T23:46:27.409Z,81.65
2018-10-19T23:49:03.432Z,83.72
2018-10-19T23:51:39.524Z,84.86
2018-10-19T23:54:15.488Z,86.47
2018-10-19T23:56:51.595Z,86.58
2018-10-19T23:59:27.495Z,88.31
